createdAt,value
2022-12-28T00:00:26.408Z,-2.88
2022-12-28T00:00:45.929Z,-2.88
2022-12-28T00:01:15.868Z,-2.88
2022-12-28T00:01:47.020Z,-3.00
2022-12-28T00:02:18.003Z,-3.00
2022-12-28T00:02:48.953Z,-3.00
2022-12-28T00:03:19.936Z,-3.11
2022-12-28T00:03:50.887Z,-3.11
2022-12-28T00:04:21.953Z,-3.11
2022-12-28T00:04:52.925Z,-3.11
2022-12-28T00:05:23.873Z,-3.11
2022-12-28T00:05:55.886Z,-3.11
2022-12-28T00:06:25.892Z,-3.11
2022-12-28T00:06:56.906Z,-3.11
2022-12-28T00:07:27.891Z,-3.22
2022-12-28T00:07:58.911Z,-3.22
2022-12-28T00:08:29.885Z,-3.22
2022-12-28T00:09:01.209Z,-3.22
2022-12-28T00:09:31.885Z,-3.22
2022-12-28T00:10:02.969Z,-3.22
2022-12-28T00:11:08.908Z,-3.11
2022-12-28T00:11:35.887Z,-3.00
2022-12-28T00:12:06.895Z,-3.00
2022-12-28T00:12:37.921Z,-3.00
2022-12-28T00:13:08.882Z,-3.00
2022-12-28T00:13:39.879Z,-3.00
2022-12-28T00:14:10.875Z,-2.88
2022-12-28T00:14:41.945Z,-2.88
2022-12-28T00:15:25.201Z,-2.88
2022-12-28T00:15:43.914Z,-2.88
2022-12-28T00:16:15.931Z,-2.88
2022-12-28T00:16:45.940Z,-3.00
2022-12-28T00:17:16.903Z,-3.00
2022-12-28T00:17:47.878Z,-3.00
2022-12-28T00:18:18.953Z,-3.00
2022-12-28T00:18:49.904Z,-3.00
2022-12-28T00:19:20.880Z,-3.00
2022-12-28T00:19:51.858Z,-3.00
2022-12-28T00:20:22.897Z,-3.00
2022-12-28T00:20:53.935Z,-3.00
2022-12-28T00:21:25.883Z,-3.00
2022-12-28T00:21:55.890Z,-3.00
2022-12-28T00:22:26.879Z,-3.00
2022-12-28T00:22:57.902Z,-3.11
2022-12-28T00:23:29.047Z,-3.11
2022-12-28T00:23:59.868Z,-3.22
2022-12-28T00:24:30.894Z,-3.22
2022-12-28T00:25:01.952Z,-3.22
2022-12-28T00:25:32.860Z,-3.22
2022-12-28T00:26:03.969Z,-3.22
2022-12-28T00:26:35.884Z,-3.22
2022-12-28T00:27:05.957Z,-3.22
2022-12-28T00:27:36.914Z,-3.11
2022-12-28T00:28:07.922Z,-3.11
2022-12-28T00:28:38.870Z,-3.11
2022-12-28T00:29:09.868Z,-3.11
2022-12-28T00:29:40.931Z,-3.11
2022-12-28T00:30:24.230Z,-3.11
2022-12-28T00:30:42.877Z,-3.11
2022-12-28T00:31:13.916Z,-3.11
2022-12-28T00:31:46.436Z,-3.11
2022-12-28T00:32:15.871Z,-3.11
2022-12-28T00:32:47.040Z,-3.22
2022-12-28T00:33:17.909Z,-3.22
2022-12-28T00:33:48.880Z,-3.22
2022-12-28T00:34:19.915Z,-3.22
2022-12-28T00:34:50.861Z,-3.22
2022-12-28T00:35:21.913Z,-3.22
2022-12-28T00:35:52.885Z,-3.22
2022-12-28T00:36:23.886Z,-3.27
2022-12-28T00:37:08.789Z,-3.27
2022-12-28T00:37:25.863Z,-3.27
2022-12-28T00:37:56.923Z,-3.27
2022-12-28T00:38:27.866Z,-3.27
2022-12-28T00:38:58.878Z,-3.27
2022-12-28T00:39:29.894Z,-3.27
2022-12-28T00:40:01.007Z,-3.27
2022-12-28T00:40:31.873Z,-3.27
2022-12-28T00:41:02.991Z,-3.27
2022-12-28T00:41:33.945Z,-3.27
2022-12-28T00:42:05.867Z,-3.27
2022-12-28T00:42:35.874Z,-3.27
2022-12-28T00:43:11.883Z,-3.27
2022-12-28T00:43:37.918Z,-3.22
2022-12-28T00:44:08.953Z,-3.22
2022-12-28T00:44:39.915Z,-3.11
2022-12-28T00:45:23.355Z,-3.11
2022-12-28T00:45:41.898Z,-3.11
2022-12-28T00:46:12.964Z,-3.11
2022-12-28T00:46:43.933Z,-3.11
2022-12-28T00:47:15.881Z,-3.11
2022-12-28T00:47:45.933Z,-3.22
2022-12-28T00:48:16.907Z,-3.22
2022-12-28T00:48:47.857Z,-3.27
2022-12-28T00:49:18.907Z,-3.27
2022-12-28T00:49:49.880Z,-3.27
2022-12-28T00:50:20.945Z,-3.27
2022-12-28T00:50:51.872Z,-3.22
2022-12-28T00:51:22.855Z,-3.22
2022-12-28T00:51:53.876Z,-3.22
2022-12-28T00:52:25.872Z,-3.22
2022-12-28T00:52:55.868Z,-3.27
2022-12-28T00:53:26.889Z,-3.27
2022-12-28T00:53:57.872Z,-3.27
2022-12-28T00:54:28.910Z,-3.38
2022-12-28T00:54:59.873Z,-3.38
2022-12-28T00:55:30.879Z,-3.38
2022-12-28T00:56:02.078Z,-3.38
2022-12-28T00:56:32.859Z,-3.38
2022-12-28T00:57:03.944Z,-3.38
2022-12-28T00:57:35.894Z,-3.50
2022-12-28T00:58:05.921Z,-3.50
2022-12-28T00:58:36.878Z,-3.50
2022-12-28T00:59:09.834Z,-3.50
2022-12-28T00:59:38.929Z,-3.50
2022-12-28T01:00:22.320Z,-3.50
2022-12-28T01:00:40.937Z,-3.50
2022-12-28T01:01:12.004Z,-3.61
2022-12-28T01:01:43.001Z,-3.61
2022-12-28T01:02:13.965Z,-3.61
2022-12-28T01:02:45.931Z,-3.61
2022-12-28T01:03:15.975Z,-3.61
2022-12-28T01:03:46.887Z,-3.61
2022-12-28T01:04:17.857Z,-3.61
2022-12-28T01:04:48.953Z,-3.61
2022-12-28T01:05:19.877Z,-3.61
2022-12-28T01:05:50.887Z,-3.61
2022-12-28T01:06:21.858Z,-3.61
2022-12-28T01:06:52.888Z,-3.72
2022-12-28T01:07:23.921Z,-3.72
2022-12-28T01:07:55.891Z,-3.72
2022-12-28T01:08:25.883Z,-3.72
2022-12-28T01:08:57.017Z,-3.72
2022-12-28T01:09:27.860Z,-3.72
2022-12-28T01:09:58.863Z,-3.72
2022-12-28T01:10:29.956Z,-3.72
2022-12-28T01:11:01.071Z,-3.72
2022-12-28T01:11:31.916Z,-3.61
2022-12-28T01:12:02.962Z,-3.61
2022-12-28T01:12:37.898Z,-3.50
2022-12-28T01:13:05.904Z,-3.50
2022-12-28T01:13:35.851Z,-3.50
2022-12-28T01:14:06.885Z,-3.50
2022-12-28T01:14:37.900Z,-3.50
2022-12-28T01:15:21.199Z,-3.61
2022-12-28T01:15:39.831Z,-3.61
2022-12-28T01:16:10.892Z,-3.61
2022-12-28T01:16:41.949Z,-3.61
2022-12-28T01:17:12.868Z,-3.72
2022-12-28T01:17:43.899Z,-3.72
2022-12-28T01:18:15.940Z,-3.72
2022-12-28T01:18:45.880Z,-3.72
2022-12-28T01:19:21.890Z,-3.72
2022-12-28T01:19:53.738Z,-3.61
2022-12-28T01:20:18.880Z,-3.61
2022-12-28T01:20:49.871Z,-3.61
2022-12-28T01:21:20.910Z,-3.72
2022-12-28T01:21:51.878Z,-3.72
2022-12-28T01:22:22.850Z,-3.72
2022-12-28T01:22:53.873Z,-3.61
2022-12-28T01:23:25.851Z,-3.61
2022-12-28T01:23:55.897Z,-3.61
2022-12-28T01:24:26.865Z,-3.61
2022-12-28T01:24:57.875Z,-3.61
2022-12-28T01:25:28.868Z,-3.61
2022-12-28T01:25:59.861Z,-3.61
2022-12-28T01:26:30.906Z,-3.61
2022-12-28T01:27:01.952Z,-3.50
2022-12-28T01:27:32.848Z,-3.50
2022-12-28T01:28:03.939Z,-3.50
2022-12-28T01:28:35.879Z,-3.50
2022-12-28T01:29:05.947Z,-3.61
2022-12-28T01:29:36.861Z,-3.61
2022-12-28T01:30:20.255Z,-3.61
2022-12-28T01:30:39.222Z,-3.61
2022-12-28T01:31:09.866Z,-3.61
2022-12-28T01:31:40.984Z,-3.61
2022-12-28T01:32:11.871Z,-3.61
2022-12-28T01:32:42.869Z,-3.61
2022-12-28T01:33:13.857Z,-3.72
2022-12-28T01:33:45.870Z,-3.72
2022-12-28T01:34:15.861Z,-3.72
2022-12-28T01:34:46.872Z,-3.72
2022-12-28T01:35:17.869Z,-3.72
2022-12-28T01:35:48.900Z,-3.77
2022-12-28T01:36:19.880Z,-3.77
2022-12-28T01:36:50.920Z,-3.77
2022-12-28T01:37:21.850Z,-3.77
2022-12-28T01:37:52.848Z,-3.77
2022-12-28T01:38:23.893Z,-3.77
2022-12-28T01:38:55.892Z,-3.72
2022-12-28T01:39:25.876Z,-3.72
2022-12-28T01:39:56.863Z,-3.72
2022-12-28T01:40:27.881Z,-3.50
2022-12-28T01:40:58.891Z,-3.50
2022-12-28T01:41:29.882Z,-3.38
2022-12-28T01:42:01.020Z,-3.38
2022-12-28T01:42:31.869Z,-3.38
2022-12-28T01:43:02.957Z,-3.27
2022-12-28T01:43:33.843Z,-3.27
2022-12-28T01:44:05.846Z,-3.22
2022-12-28T01:44:35.865Z,-3.22
2022-12-28T01:45:19.261Z,-3.22
2022-12-28T01:45:37.856Z,-3.22
2022-12-28T01:46:09.022Z,-3.22
2022-12-28T01:46:39.843Z,-3.22
2022-12-28T01:47:10.891Z,-3.22
2022-12-28T01:47:41.852Z,-3.22
2022-12-28T01:48:12.841Z,-3.22
2022-12-28T01:48:43.934Z,-3.22
2022-12-28T01:49:15.840Z,-3.22
2022-12-28T01:49:45.852Z,-3.11
2022-12-28T01:50:16.936Z,-3.11
2022-12-28T01:50:47.861Z,-3.11
2022-12-28T01:51:18.920Z,-3.00
2022-12-28T01:51:49.877Z,-3.00
2022-12-28T01:52:20.840Z,-3.00
2022-12-28T01:52:51.911Z,-2.88
2022-12-28T01:53:22.852Z,-2.88
2022-12-28T01:53:53.875Z,-2.88
2022-12-28T01:54:25.891Z,-2.88
2022-12-28T01:54:55.920Z,-2.88
2022-12-28T01:55:26.876Z,-2.88
2022-12-28T01:55:57.871Z,-2.88
2022-12-28T01:56:28.852Z,-2.88
2022-12-28T01:56:59.845Z,-2.88
2022-12-28T01:57:30.998Z,-2.88
2022-12-28T01:58:01.883Z,-2.88
2022-12-28T01:58:32.837Z,-2.88
2022-12-28T01:59:03.937Z,-2.88
2022-12-28T01:59:37.697Z,-2.88
2022-12-28T02:00:19.128Z,-2.77
2022-12-28T02:00:38.634Z,-2.77
2022-12-28T02:01:08.426Z,-2.77
2022-12-28T02:01:39.135Z,-2.77
2022-12-28T02:02:10.594Z,-2.88
2022-12-28T02:02:41.121Z,-2.88
2022-12-28T02:03:17.123Z,-2.88
2022-12-28T02:03:43.202Z,-2.88
2022-12-28T02:04:13.930Z,-3.00
2022-12-28T02:04:45.989Z,-3.00
2022-12-28T02:05:16.889Z,-3.00
2022-12-28T02:05:46.970Z,-3.11
2022-12-28T02:06:18.245Z,-3.11
2022-12-28T02:06:48.973Z,-3.11
2022-12-28T02:07:19.905Z,-3.11
2022-12-28T02:07:50.960Z,-3.11
2022-12-28T02:08:21.912Z,-3.11
2022-12-28T02:08:52.857Z,-3.11
2022-12-28T02:09:23.867Z,-3.11
2022-12-28T02:10:40.618Z,-3.11
2022-12-28T02:10:56.921Z,-3.00
2022-12-28T02:11:27.884Z,-3.00
2022-12-28T02:11:58.899Z,-3.00
2022-12-28T02:12:29.927Z,-3.00
2022-12-28T02:13:01.021Z,-3.00
2022-12-28T02:13:31.877Z,-3.00
2022-12-28T02:14:03.001Z,-3.00
2022-12-28T02:14:33.923Z,-3.00
2022-12-28T02:15:22.863Z,-3.00
2022-12-28T02:15:35.925Z,-3.00
2022-12-28T02:16:06.909Z,-3.00
2022-12-28T02:16:37.879Z,-3.00
2022-12-28T02:17:09.067Z,-3.00
2022-12-28T02:17:39.893Z,-3.00
2022-12-28T02:18:10.862Z,-3.00
2022-12-28T02:18:41.917Z,-3.00
2022-12-28T02:19:12.839Z,-3.00
2022-12-28T02:19:43.902Z,-2.88
2022-12-28T02:20:15.999Z,-2.88
2022-12-28T02:20:45.918Z,-2.88
2022-12-28T02:21:16.923Z,-2.88
2022-12-28T02:21:47.854Z,-2.88
2022-12-28T02:22:18.946Z,-2.88
2022-12-28T02:22:49.884Z,-2.88
2022-12-28T02:23:20.919Z,-2.88
2022-12-28T02:23:51.868Z,-2.88
2022-12-28T02:24:22.864Z,-2.88
2022-12-28T02:25:11.625Z,-2.88
2022-12-28T02:25:25.846Z,-2.88
2022-12-28T02:25:55.907Z,-2.88
2022-12-28T02:26:26.847Z,-2.88
2022-12-28T02:26:57.853Z,-2.88
2022-12-28T02:27:28.854Z,-2.88
2022-12-28T02:27:59.889Z,-2.88
2022-12-28T02:28:30.881Z,-2.88
2022-12-28T02:29:01.898Z,-2.77
2022-12-28T02:29:32.918Z,-2.77
2022-12-28T02:30:16.341Z,-2.77
2022-12-28T02:30:35.962Z,-2.77
2022-12-28T02:31:05.920Z,-2.77
2022-12-28T02:31:36.828Z,-2.77
2022-12-28T02:32:07.899Z,-2.88
2022-12-28T02:32:38.877Z,-2.88
2022-12-28T02:33:09.873Z,-2.88
2022-12-28T02:33:40.920Z,-2.88
2022-12-28T02:34:11.831Z,-2.88
2022-12-28T02:34:42.869Z,-2.88
2022-12-28T02:35:13.861Z,-3.00
2022-12-28T02:35:45.869Z,-3.00
2022-12-28T02:36:18.499Z,-3.00
2022-12-28T02:36:46.845Z,-3.00
2022-12-28T02:37:17.851Z,-3.00
2022-12-28T02:37:48.847Z,-3.00
2022-12-28T02:38:19.855Z,-3.00
2022-12-28T02:38:50.867Z,-3.00
2022-12-28T02:39:21.846Z,-3.00
2022-12-28T02:39:52.885Z,-3.00
2022-12-28T02:40:23.914Z,-3.00
2022-12-28T02:40:55.880Z,-2.88
2022-12-28T02:41:25.940Z,-2.88
2022-12-28T02:41:56.832Z,-2.88
2022-12-28T02:42:27.866Z,-2.88
2022-12-28T02:42:58.844Z,-2.88
2022-12-28T02:43:29.850Z,-2.88
2022-12-28T02:44:01.084Z,-2.88
2022-12-28T02:44:31.916Z,-2.88
2022-12-28T02:45:15.277Z,-2.88
2022-12-28T02:45:33.879Z,-2.88
2022-12-28T02:46:05.907Z,-2.88
2022-12-28T02:46:35.855Z,-2.88
2022-12-28T02:47:06.845Z,-2.88
2022-12-28T02:47:37.836Z,-2.77
2022-12-28T02:48:08.918Z,-2.77
2022-12-28T02:48:39.847Z,-2.77
2022-12-28T02:49:10.872Z,-2.77
2022-12-28T02:49:41.824Z,-2.72
2022-12-28T02:50:13.106Z,-2.61
2022-12-28T02:50:43.844Z,-2.50
2022-12-28T02:51:15.848Z,-2.50
2022-12-28T02:51:45.848Z,-2.50
2022-12-28T02:52:16.877Z,-2.50
2022-12-28T02:52:47.853Z,-2.50
2022-12-28T02:53:18.833Z,-2.50
2022-12-28T02:53:50.097Z,-2.50
2022-12-28T02:54:20.833Z,-2.38
2022-12-28T02:54:51.873Z,-2.38
2022-12-28T02:55:22.838Z,-2.38
2022-12-28T02:55:53.880Z,-2.38
2022-12-28T02:56:25.896Z,-2.38
2022-12-28T02:56:55.867Z,-2.38
2022-12-28T02:57:26.898Z,-2.38
2022-12-28T02:57:57.834Z,-2.38
2022-12-28T02:58:28.827Z,-2.38
2022-12-28T02:58:59.843Z,-2.38
2022-12-28T02:59:30.880Z,-2.38
2022-12-28T03:00:14.293Z,-2.50
2022-12-28T03:00:32.890Z,-2.50
2022-12-28T03:01:03.994Z,-2.50
2022-12-28T03:01:35.979Z,-2.50
2022-12-28T03:02:06.170Z,-2.50
2022-12-28T03:02:37.013Z,-2.50
2022-12-28T03:03:07.895Z,-2.50
2022-12-28T03:03:38.887Z,-2.50
2022-12-28T03:04:09.842Z,-2.50
2022-12-28T03:04:40.857Z,-2.50
2022-12-28T03:05:11.886Z,-2.50
2022-12-28T03:05:42.858Z,-2.50
2022-12-28T03:06:19.383Z,-2.50
2022-12-28T03:06:45.918Z,-2.61
2022-12-28T03:07:15.881Z,-2.61
2022-12-28T03:07:46.830Z,-2.61
2022-12-28T03:08:17.859Z,-2.61
2022-12-28T03:08:48.830Z,-2.61
2022-12-28T03:09:19.855Z,-2.50
2022-12-28T03:09:50.890Z,-2.50
2022-12-28T03:10:21.908Z,-2.50
2022-12-28T03:10:52.847Z,-2.50
2022-12-28T03:11:23.884Z,-2.50
2022-12-28T03:11:55.883Z,-2.50
2022-12-28T03:12:25.843Z,-2.50
2022-12-28T03:12:56.833Z,-2.50
2022-12-28T03:13:27.851Z,-2.50
2022-12-28T03:13:58.828Z,-2.50
2022-12-28T03:14:29.842Z,-2.50
2022-12-28T03:15:13.383Z,-2.50
2022-12-28T03:15:31.906Z,-2.38
2022-12-28T03:16:03.036Z,-2.38
2022-12-28T03:16:33.825Z,-2.50
2022-12-28T03:17:05.868Z,-2.50
2022-12-28T03:17:35.844Z,-2.50
2022-12-28T03:18:06.836Z,-2.50
2022-12-28T03:18:37.918Z,-2.61
2022-12-28T03:19:08.893Z,-2.61
2022-12-28T03:19:39.823Z,-2.61
2022-12-28T03:20:10.953Z,-2.72
2022-12-28T03:20:41.883Z,-2.72
2022-12-28T03:21:12.837Z,-2.72
2022-12-28T03:21:43.828Z,-2.77
2022-12-28T03:22:15.835Z,-2.77
2022-12-28T03:22:45.840Z,-2.77
2022-12-28T03:23:16.835Z,-2.77
2022-12-28T03:23:47.868Z,-2.77
2022-12-28T03:24:18.825Z,-2.77
2022-12-28T03:24:49.830Z,-2.77
2022-12-28T03:25:20.842Z,-2.77
2022-12-28T03:25:51.883Z,-2.72
2022-12-28T03:26:22.826Z,-2.72
2022-12-28T03:26:53.874Z,-2.72
2022-12-28T03:27:25.857Z,-2.72
2022-12-28T03:27:55.907Z,-2.72
2022-12-28T03:28:26.815Z,-2.72
2022-12-28T03:28:57.851Z,-2.72
2022-12-28T03:29:28.814Z,-2.77
2022-12-28T03:29:59.811Z,-2.77
2022-12-28T03:30:43.282Z,-2.88
2022-12-28T03:31:01.928Z,-2.88
2022-12-28T03:31:32.835Z,-2.88
2022-12-28T03:32:03.928Z,-2.88
2022-12-28T03:32:35.893Z,-2.88
2022-12-28T03:33:05.921Z,-2.88
2022-12-28T03:33:36.854Z,-2.88
2022-12-28T03:34:07.956Z,-2.88
2022-12-28T03:34:38.850Z,-2.77
2022-12-28T03:35:09.930Z,-2.77
2022-12-28T03:35:40.838Z,-2.77
2022-12-28T03:36:11.847Z,-2.77
2022-12-28T03:36:42.826Z,-2.77
2022-12-28T03:37:13.891Z,-2.77
2022-12-28T03:37:45.852Z,-2.77
2022-12-28T03:38:15.910Z,-2.88
2022-12-28T03:38:46.830Z,-2.88
2022-12-28T03:39:17.884Z,-2.88
2022-12-28T03:39:48.855Z,-2.88
2022-12-28T03:40:20.908Z,-2.88
2022-12-28T03:40:50.891Z,-2.77
2022-12-28T03:41:21.839Z,-2.72
2022-12-28T03:41:52.822Z,-2.72
2022-12-28T03:42:23.869Z,-2.72
2022-12-28T03:42:55.873Z,-2.72
2022-12-28T03:43:25.851Z,-2.72
2022-12-28T03:43:56.828Z,-2.72
2022-12-28T03:44:27.848Z,-2.72
2022-12-28T03:44:58.866Z,-2.61
2022-12-28T03:45:46.066Z,-2.50
2022-12-28T03:46:01.108Z,-2.50
2022-12-28T03:46:31.972Z,-2.50
2022-12-28T03:47:02.946Z,-2.38
2022-12-28T03:47:33.826Z,-2.38
2022-12-28T03:48:05.933Z,-2.38
2022-12-28T03:48:35.820Z,-2.38
2022-12-28T03:49:06.863Z,-2.38
2022-12-28T03:49:37.906Z,-2.38
2022-12-28T03:50:08.961Z,-2.38
2022-12-28T03:50:39.874Z,-2.38
2022-12-28T03:51:10.917Z,-2.38
2022-12-28T03:51:41.824Z,-2.50
2022-12-28T03:52:12.865Z,-2.50
2022-12-28T03:52:43.826Z,-2.50
2022-12-28T03:53:15.823Z,-2.50
2022-12-28T03:53:45.834Z,-2.50
2022-12-28T03:54:16.804Z,-2.50
2022-12-28T03:54:47.848Z,-2.61
2022-12-28T03:55:18.827Z,-2.61
2022-12-28T03:55:49.831Z,-2.61
2022-12-28T03:56:20.841Z,-2.61
2022-12-28T03:56:51.812Z,-2.72
2022-12-28T03:57:22.824Z,-2.72
2022-12-28T03:57:53.875Z,-2.72
2022-12-28T03:58:25.809Z,-2.72
2022-12-28T03:58:55.818Z,-2.72
2022-12-28T03:59:26.838Z,-2.72
2022-12-28T03:59:57.827Z,-2.77
2022-12-28T04:00:41.204Z,-2.77
2022-12-28T04:00:59.961Z,-2.77
2022-12-28T04:01:30.958Z,-2.77
2022-12-28T04:02:02.022Z,-2.77
2022-12-28T04:02:32.921Z,-2.77
2022-12-28T04:03:03.859Z,-2.72
2022-12-28T04:03:35.847Z,-2.72
2022-12-28T04:04:05.885Z,-2.72
2022-12-28T04:04:36.837Z,-2.61
2022-12-28T04:05:07.891Z,-2.61
2022-12-28T04:05:38.840Z,-2.61
2022-12-28T04:06:09.860Z,-2.61
2022-12-28T04:06:40.835Z,-2.61
2022-12-28T04:07:11.807Z,-2.61
2022-12-28T04:07:42.841Z,-2.61
2022-12-28T04:08:13.865Z,-2.61
2022-12-28T04:08:45.833Z,-2.61
2022-12-28T04:09:15.850Z,-2.50
2022-12-28T04:09:46.818Z,-2.50
2022-12-28T04:10:17.871Z,-2.50
2022-12-28T04:10:48.830Z,-2.50
2022-12-28T04:11:19.819Z,-2.50
2022-12-28T04:11:50.824Z,-2.50
2022-12-28T04:12:21.823Z,-2.50
2022-12-28T04:12:52.813Z,-2.50
2022-12-28T04:13:23.825Z,-2.50
2022-12-28T04:13:55.896Z,-2.50
2022-12-28T04:14:25.848Z,-2.50
2022-12-28T04:14:56.816Z,-2.50
2022-12-28T04:15:40.173Z,-2.50
2022-12-28T04:15:58.912Z,-2.50
2022-12-28T04:16:29.826Z,-2.50
2022-12-28T04:17:00.999Z,-2.50
2022-12-28T04:17:31.837Z,-2.50
2022-12-28T04:18:03.006Z,-2.38
2022-12-28T04:18:33.815Z,-2.38
2022-12-28T04:19:05.889Z,-2.27
2022-12-28T04:19:35.886Z,-2.27
2022-12-28T04:20:06.904Z,-2.27
2022-12-28T04:20:37.833Z,-2.27
2022-12-28T04:21:08.927Z,-2.27
2022-12-28T04:21:39.844Z,-2.27
2022-12-28T04:22:10.838Z,-2.27
2022-12-28T04:22:41.835Z,-2.27
2022-12-28T04:23:12.864Z,-2.27
2022-12-28T04:23:43.815Z,-2.27
2022-12-28T04:24:15.830Z,-2.27
2022-12-28T04:24:45.832Z,-2.38
2022-12-28T04:25:16.824Z,-2.38
2022-12-28T04:25:47.879Z,-2.38
2022-12-28T04:26:18.820Z,-2.38
2022-12-28T04:26:49.838Z,-2.38
2022-12-28T04:27:20.817Z,-2.38
2022-12-28T04:27:51.825Z,-2.38
2022-12-28T04:28:22.829Z,-2.38
2022-12-28T04:28:53.796Z,-2.38
2022-12-28T04:29:25.844Z,-2.38
2022-12-28T04:29:55.840Z,-2.38
2022-12-28T04:30:39.182Z,-2.38
2022-12-28T04:30:57.920Z,-2.38
2022-12-28T04:31:28.849Z,-2.38
2022-12-28T04:31:59.814Z,-2.38
2022-12-28T04:32:30.815Z,-2.38
2022-12-28T04:33:01.836Z,-2.38
2022-12-28T04:33:32.875Z,-2.38
2022-12-28T04:34:03.863Z,-2.38
2022-12-28T04:34:35.806Z,-2.38
2022-12-28T04:35:05.813Z,-2.38
2022-12-28T04:35:36.816Z,-2.38
2022-12-28T04:36:07.861Z,-2.38
2022-12-28T04:36:38.828Z,-2.50
2022-12-28T04:37:09.833Z,-2.50
2022-12-28T04:37:40.811Z,-2.50
2022-12-28T04:38:11.813Z,-2.50
2022-12-28T04:38:42.884Z,-2.50
2022-12-28T04:39:13.811Z,-2.50
2022-12-28T04:39:56.301Z,-2.50
2022-12-28T04:40:15.936Z,-2.50
2022-12-28T04:40:46.832Z,-2.50
2022-12-28T04:41:17.817Z,-2.50
2022-12-28T04:41:48.812Z,-2.50
2022-12-28T04:42:19.838Z,-2.50
2022-12-28T04:42:50.796Z,-2.50
2022-12-28T04:43:21.848Z,-2.50
2022-12-28T04:43:52.867Z,-2.50
2022-12-28T04:44:23.800Z,-2.50
2022-12-28T04:44:55.825Z,-2.50
2022-12-28T04:45:38.224Z,-2.50
2022-12-28T04:45:56.819Z,-2.50
2022-12-28T04:46:27.942Z,-2.50
2022-12-28T04:46:58.889Z,-2.50
2022-12-28T04:47:29.873Z,-2.50
2022-12-28T04:48:01.056Z,-2.50
2022-12-28T04:48:31.811Z,-2.50
2022-12-28T04:49:02.981Z,-2.38
2022-12-28T04:49:33.801Z,-2.38
2022-12-28T04:50:05.938Z,-2.38
2022-12-28T04:50:35.867Z,-2.38
2022-12-28T04:51:06.862Z,-2.38
2022-12-28T04:51:37.838Z,-2.38
2022-12-28T04:52:08.868Z,-2.38
2022-12-28T04:52:39.812Z,-2.27
2022-12-28T04:53:10.871Z,-2.27
2022-12-28T04:53:41.816Z,-2.27
2022-12-28T04:54:12.855Z,-2.27
2022-12-28T04:54:43.819Z,-2.27
2022-12-28T04:55:31.608Z,-2.27
2022-12-28T04:55:45.828Z,-2.38
2022-12-28T04:56:16.820Z,-2.38
2022-12-28T04:56:47.818Z,-2.38
2022-12-28T04:57:18.813Z,-2.27
2022-12-28T04:57:49.825Z,-2.27
2022-12-28T04:58:20.879Z,-2.27
2022-12-28T04:58:51.805Z,-2.38
2022-12-28T04:59:22.800Z,-2.38
2022-12-28T04:59:53.857Z,-2.38
2022-12-28T05:00:38.253Z,-2.38
2022-12-28T05:00:55.906Z,-2.38
2022-12-28T05:01:26.932Z,-2.38
2022-12-28T05:01:57.906Z,-2.38
2022-12-28T05:02:28.949Z,-2.38
2022-12-28T05:02:59.882Z,-2.38
2022-12-28T05:03:30.819Z,-2.38
2022-12-28T05:04:01.838Z,-2.38
2022-12-28T05:04:32.823Z,-2.38
2022-12-28T05:05:03.854Z,-2.38
2022-12-28T05:05:35.852Z,-2.38
2022-12-28T05:06:05.876Z,-2.38
2022-12-28T05:06:36.803Z,-2.27
2022-12-28T05:07:07.836Z,-2.27
2022-12-28T05:07:38.846Z,-2.22
2022-12-28T05:08:09.802Z,-2.22
2022-12-28T05:08:40.841Z,-2.22
2022-12-28T05:09:11.808Z,-2.22
2022-12-28T05:09:42.815Z,-2.22
2022-12-28T05:10:13.855Z,-2.22
2022-12-28T05:10:45.821Z,-2.11
2022-12-28T05:11:15.875Z,-2.11
2022-12-28T05:11:46.806Z,-2.11
2022-12-28T05:12:17.791Z,-2.11
2022-12-28T05:12:48.814Z,-2.11
2022-12-28T05:13:19.788Z,-2.11
2022-12-28T05:13:50.903Z,-1.88
2022-12-28T05:14:21.808Z,-1.77
2022-12-28T05:14:52.800Z,-1.72
2022-12-28T05:15:36.170Z,-1.72
2022-12-28T05:15:55.866Z,-1.72
2022-12-28T05:16:25.909Z,-1.72
2022-12-28T05:16:56.825Z,-1.72
2022-12-28T05:17:27.853Z,-1.77
2022-12-28T05:17:58.819Z,-1.77
2022-12-28T05:18:29.803Z,-1.77
2022-12-28T05:19:00.949Z,-1.72
2022-12-28T05:19:31.815Z,-1.72
2022-12-28T05:20:02.959Z,-1.72
2022-12-28T05:20:33.841Z,-1.72
2022-12-28T05:21:05.851Z,-1.72
2022-12-28T05:21:35.831Z,-1.61
2022-12-28T05:22:06.877Z,-1.61
2022-12-28T05:22:41.112Z,-1.61
2022-12-28T05:23:08.822Z,-1.61
2022-12-28T05:23:39.855Z,-1.50
2022-12-28T05:24:10.819Z,-1.50
2022-12-28T05:24:41.803Z,-1.50
2022-12-28T05:25:12.822Z,-1.50
2022-12-28T05:25:43.791Z,-1.50
2022-12-28T05:26:15.802Z,-1.50
2022-12-28T05:26:45.815Z,-1.50
2022-12-28T05:27:16.795Z,-1.50
2022-12-28T05:27:47.804Z,-1.50
2022-12-28T05:28:18.854Z,-1.61
2022-12-28T05:28:49.815Z,-1.61
2022-12-28T05:29:20.800Z,-1.61
2022-12-28T05:29:51.797Z,-1.61
2022-12-28T05:30:35.185Z,-1.61
2022-12-28T05:30:53.789Z,-1.50
2022-12-28T05:31:25.855Z,-1.50
2022-12-28T05:31:55.858Z,-1.50
2022-12-28T05:32:26.833Z,-1.50
2022-12-28T05:32:57.827Z,-1.50
2022-12-28T05:33:28.836Z,-1.50
2022-12-28T05:33:59.845Z,-1.50
2022-12-28T05:34:30.800Z,-1.50
2022-12-28T05:35:01.840Z,-1.50
2022-12-28T05:35:32.846Z,-1.50
2022-12-28T05:36:03.845Z,-1.50
2022-12-28T05:36:35.842Z,-1.50
2022-12-28T05:37:06.003Z,-1.50
2022-12-28T05:37:36.789Z,-1.50
2022-12-28T05:38:07.867Z,-1.50
2022-12-28T05:38:38.833Z,-1.50
2022-12-28T05:39:09.838Z,-1.50
2022-12-28T05:39:40.807Z,-1.38
2022-12-28T05:40:11.831Z,-1.38
2022-12-28T05:40:42.842Z,-1.38
2022-12-28T05:41:13.825Z,-1.38
2022-12-28T05:41:45.813Z,-1.38
2022-12-28T05:42:15.831Z,-1.38
2022-12-28T05:42:51.222Z,-1.38
2022-12-28T05:43:17.810Z,-1.38
2022-12-28T05:43:48.823Z,-1.38
2022-12-28T05:44:19.796Z,-1.38
2022-12-28T05:44:50.867Z,-1.38
2022-12-28T05:45:34.134Z,-1.38
2022-12-28T05:45:52.783Z,-1.38
2022-12-28T05:46:23.895Z,-1.38
2022-12-28T05:46:55.886Z,-1.38
2022-12-28T05:47:25.798Z,-1.38
2022-12-28T05:47:56.798Z,-1.38
2022-12-28T05:48:27.840Z,-1.38
2022-12-28T05:48:58.868Z,-1.38
2022-12-28T05:49:29.800Z,-1.38
2022-12-28T05:50:00.973Z,-1.38
2022-12-28T05:50:31.814Z,-1.38
2022-12-28T05:51:02.962Z,-1.38
2022-12-28T05:51:33.818Z,-1.38
2022-12-28T05:52:05.839Z,-1.38
2022-12-28T05:52:37.003Z,-1.38
2022-12-28T05:53:06.932Z,-1.27
2022-12-28T05:53:37.798Z,-1.27
2022-12-28T05:54:08.898Z,-1.27
2022-12-28T05:54:39.826Z,-1.27
2022-12-28T05:55:10.791Z,-1.27
2022-12-28T05:55:41.801Z,-1.27
2022-12-28T05:56:14.701Z,-1.22
2022-12-28T05:56:43.783Z,-1.22
2022-12-28T05:57:15.800Z,-1.22
2022-12-28T05:57:45.810Z,-1.22
2022-12-28T05:58:16.795Z,-1.22
2022-12-28T05:58:47.784Z,-1.22
2022-12-28T05:59:18.819Z,-1.22
2022-12-28T05:59:49.843Z,-1.22
2022-12-28T06:00:33.423Z,-1.22
2022-12-28T06:00:51.790Z,-1.22
2022-12-28T06:01:22.893Z,-1.22
2022-12-28T06:01:54.010Z,-1.22
2022-12-28T06:02:25.936Z,-1.22
2022-12-28T06:02:55.907Z,-1.22
2022-12-28T06:03:26.920Z,-1.22
2022-12-28T06:03:57.863Z,-1.22
2022-12-28T06:04:28.792Z,-1.22
2022-12-28T06:04:59.787Z,-1.22
2022-12-28T06:05:30.804Z,-1.22
2022-12-28T06:06:01.814Z,-1.22
2022-12-28T06:06:32.779Z,-1.22
2022-12-28T06:07:03.813Z,-1.22
2022-12-28T06:07:35.782Z,-1.11
2022-12-28T06:08:05.813Z,-1.11
2022-12-28T06:08:36.908Z,-1.11
2022-12-28T06:09:07.822Z,-1.11
2022-12-28T06:09:38.857Z,-1.11
2022-12-28T06:10:09.932Z,-1.11
2022-12-28T06:10:40.802Z,-1.11
2022-12-28T06:11:11.805Z,-1.11
2022-12-28T06:11:42.817Z,-1.11
2022-12-28T06:12:13.799Z,-1.11
2022-12-28T06:12:45.807Z,-1.11
2022-12-28T06:13:15.795Z,-1.00
2022-12-28T06:13:46.794Z,-1.00
2022-12-28T06:14:17.833Z,-1.00
2022-12-28T06:14:48.806Z,-1.00
2022-12-28T06:15:32.170Z,-1.00
2022-12-28T06:15:50.843Z,-1.00
2022-12-28T06:16:21.817Z,-1.00
2022-12-28T06:16:52.829Z,-1.00
2022-12-28T06:17:23.855Z,-1.00
2022-12-28T06:17:55.807Z,-1.00
2022-12-28T06:18:25.789Z,-1.00
2022-12-28T06:18:56.815Z,-1.00
2022-12-28T06:19:27.819Z,-1.00
2022-12-28T06:19:58.850Z,-1.00
2022-12-28T06:20:29.820Z,-1.00
2022-12-28T06:21:01.039Z,-1.00
2022-12-28T06:21:31.819Z,-1.00
2022-12-28T06:22:02.877Z,-1.00
2022-12-28T06:22:33.791Z,-1.00
2022-12-28T06:23:05.905Z,-.88
2022-12-28T06:23:35.832Z,-.88
2022-12-28T06:24:06.977Z,-.88
2022-12-28T06:24:37.802Z,-.88
2022-12-28T06:25:08.831Z,-.88
2022-12-28T06:25:39.796Z,-.88
2022-12-28T06:26:10.840Z,-.88
2022-12-28T06:26:41.830Z,-.88
2022-12-28T06:27:12.852Z,-.88
2022-12-28T06:27:43.785Z,-.88
2022-12-28T06:28:15.799Z,-.88
2022-12-28T06:28:45.813Z,-.88
2022-12-28T06:29:16.778Z,-.88
2022-12-28T06:29:47.793Z,-.88
2022-12-28T06:30:31.163Z,-.88
2022-12-28T06:30:52.796Z,-.88
2022-12-28T06:31:20.865Z,-.88
2022-12-28T06:31:51.818Z,-.88
2022-12-28T06:32:22.783Z,-.88
2022-12-28T06:32:53.791Z,-.88
2022-12-28T06:33:25.844Z,-.88
2022-12-28T06:33:55.823Z,-.88
2022-12-28T06:34:26.851Z,-.77
2022-12-28T06:34:57.782Z,-.77
2022-12-28T06:35:28.823Z,-.77
2022-12-28T06:35:59.819Z,-.77
2022-12-28T06:36:30.785Z,-.77
2022-12-28T06:37:01.812Z,-.77
2022-12-28T06:37:32.796Z,-.77
2022-12-28T06:38:03.840Z,-.77
2022-12-28T06:38:35.773Z,-.77
2022-12-28T06:39:05.851Z,-.77
2022-12-28T06:39:36.794Z,-.72
2022-12-28T06:40:07.825Z,-.72
2022-12-28T06:41:11.783Z,-.72